sensor_id;sensor_type;location;lat;lon;timestamp;temperature;humidity
31695;DHT22;18289;51.330;4.946;2024-03-08T00:01:10;5.10;99.90
31695;DHT22;18289;51.330;4.946;2024-03-08T00:03:36;5.00;99.90
31695;DHT22;18289;51.330;4.946;2024-03-08T00:06:02;5.00;99.90
31695;DHT22;18289;51.330;4.946;2024-03-08T00:08:28;5.00;99.90
31695;DHT22;18289;51.330;4.946;2024-03-08T00:10:53;5.00;99.90
31695;DHT22;18289;51.330;4.946;2024-03-08T00:13:19;5.00;99.90
31695;DHT22;18289;51.330;4.946;2024-03-08T00:15:45;4.90;99.90
31695;DHT22;18289;51.330;4.946;2024-03-08T00:18:11;4.80;99.90
31695;DHT22;18289;51.330;4.946;2024-03-08T00:20:37;4.80;99.90
31695;DHT22;18289;51.330;4.946;2024-03-08T00:23:03;4.80;99.90
31695;DHT22;18289;51.330;4.946;2024-03-08T00:25:29;4.80;99.90
31695;DHT22;18289;51.330;4.946;2024-03-08T00:27:54;4.80;99.90
31695;DHT22;18289;51.330;4.946;2024-03-08T00:30:22;4.80;99.90
31695;DHT22;18289;51.330;4.946;2024-03-08T00:32:48;4.80;99.90
31695;DHT22;18289;51.330;4.946;2024-03-08T00:35:14;4.70;99.90
31695;DHT22;18289;51.330;4.946;2024-03-08T00:37:40;4.70;99.90
31695;DHT22;18289;51.330;4.946;2024-03-08T00:40:12;4.70;99.90
31695;DHT22;18289;51.330;4.946;2024-03-08T00:42:38;4.60;99.90
31695;DHT22;18289;51.330;4.946;2024-03-08T00:45:05;4.70;99.90
31695;DHT22;18289;51.330;4.946;2024-03-08T00:47:31;4.60;99.90
31695;DHT22;18289;51.330;4.946;2024-03-08T00:49:56;4.60;99.90
31695;DHT22;18289;51.330;4.946;2024-03-08T00:52:23;4.50;99.90
31695;DHT22;18289;51.330;4.946;2024-03-08T00:54:49;4.60;99.90
31695;DHT22;18289;51.330;4.946;2024-03-08T00:57:15;4.60;99.90
31695;DHT22;18289;51.330;4.946;2024-03-08T00:59:41;4.60;99.90
31695;DHT22;18289;51.330;4.946;2024-03-08T01:02:07;4.60;99.90
31695;DHT22;18289;51.330;4.946;2024-03-08T01:04:34;4.50;99.90
31695;DHT22;18289;51.330;4.946;2024-03-08T01:07:00;4.60;99.90
31695;DHT22;18289;51.330;4.946;2024-03-08T01:09:26;4.60;99.90
31695;DHT22;18289;51.330;4.946;2024-03-08T01:11:53;4.50;99.90
31695;DHT22;18289;51.330;4.946;2024-03-08T01:14:20;4.50;99.90
31695;DHT22;18289;51.330;4.946;2024-03-08T01:16:48;4.40;99.90
31695;DHT22;18289;51.330;4.946;2024-03-08T01:19:14;4.40;99.90
31695;DHT22;18289;51.330;4.946;2024-03-08T01:21:41;4.40;99.90
31695;DHT22;18289;51.330;4.946;2024-03-08T01:24:06;4.30;99.90
31695;DHT22;18289;51.330;4.946;2024-03-08T01:26:32;4.30;99.90
31695;DHT22;18289;51.330;4.946;2024-03-08T01:29:00;4.30;99.90
31695;DHT22;18289;51.330;4.946;2024-03-08T01:31:26;4.30;99.90
31695;DHT22;18289;51.330;4.946;2024-03-08T01:33:51;4.30;99.90
31695;DHT22;18289;51.330;4.946;2024-03-08T01:36:18;4.20;99.90
31695;DHT22;18289;51.330;4.946;2024-03-08T01:38:44;4.20;99.90
31695;DHT22;18289;51.330;4.946;2024-03-08T01:41:10;4.20;99.90
31695;DHT22;18289;51.330;4.946;2024-03-08T01:43:39;4.20;99.90
31695;DHT22;18289;51.330;4.946;2024-03-08T01:46:05;4.10;99.90
31695;DHT22;18289;51.330;4.946;2024-03-08T01:48:34;4.00;99.90
31695;DHT22;18289;51.330;4.946;2024-03-08T01:51:00;4.00;99.90
31695;DHT22;18289;51.330;4.946;2024-03-08T01:53:27;4.00;99.90
31695;DHT22;18289;51.330;4.946;2024-03-08T01:55:56;3.90;99.90
31695;DHT22;18289;51.330;4.946;2024-03-08T01:58:23;4.00;99.90
31695;DHT22;18289;51.330;4.946;2024-03-08T02:00:49;3.90;99.90
31695;DHT22;18289;51.330;4.946;2024-03-08T02:03:17;3.90;99.90
31695;DHT22;18289;51.330;4.946;2024-03-08T02:05:43;3.80;99.90
31695;DHT22;18289;51.330;4.946;2024-03-08T02:08:09;3.80;99.90
31695;DHT22;18289;51.330;4.946;2024-03-08T02:10:43;3.90;99.90
31695;DHT22;18289;51.330;4.946;2024-03-08T02:13:10;3.80;99.90
31695;DHT22;18289;51.330;4.946;2024-03-08T02:15:54;3.70;99.90
31695;DHT22;18289;51.330;4.946;2024-03-08T02:18:21;3.80;99.90
31695;DHT22;18289;51.330;4.946;2024-03-08T02:20:57;3.80;99.90
31695;DHT22;18289;51.330;4.946;2024-03-08T02:23:23;3.80;99.90
31695;DHT22;18289;51.330;4.946;2024-03-08T02:25:54;3.80;99.90
31695;DHT22;18289;51.330;4.946;2024-03-08T02:28:20;3.80;99.90
31695;DHT22;18289;51.330;4.946;2024-03-08T02:30:49;3.70;99.90
31695;DHT22;18289;51.330;4.946;2024-03-08T02:33:25;3.70;99.90
31695;DHT22;18289;51.330;4.946;2024-03-08T02:35:51;3.70;99.90
31695;DHT22;18289;51.330;4.946;2024-03-08T02:38:21;3.70;99.90
31695;DHT22;18289;51.330;4.946;2024-03-08T02:40:48;3.80;99.90
31695;DHT22;18289;51.330;4.946;2024-03-08T02:43:15;3.70;99.90
31695;DHT22;18289;51.330;4.946;2024-03-08T02:45:42;3.70;99.90
31695;DHT22;18289;51.330;4.946;2024-03-08T02:48:08;3.60;99.90
31695;DHT22;18289;51.330;4.946;2024-03-08T02:50:34;3.60;99.90
31695;DHT22;18289;51.330;4.946;2024-03-08T02:53:01;3.50;99.90
31695;DHT22;18289;51.330;4.946;2024-03-08T02:55:27;3.50;99.90
31695;DHT22;18289;51.330;4.946;2024-03-08T02:57:53;3.50;99.90
31695;DHT22;18289;51.330;4.946;2024-03-08T03:00:22;3.50;99.90
31695;DHT22;18289;51.330;4.946;2024-03-08T03:02:49;3.50;99.90
31695;DHT22;18289;51.330;4.946;2024-03-08T03:05:23;3.50;99.90
31695;DHT22;18289;51.330;4.946;2024-03-08T03:07:49;3.50;99.90
31695;DHT22;18289;51.330;4.946;2024-03-08T03:10:18;3.40;99.90
31695;DHT22;18289;51.330;4.946;2024-03-08T03:12:45;3.40;99.90
31695;DHT22;18289;51.330;4.946;2024-03-08T03:17:46;3.40;99.90
31695;DHT22;18289;51.330;4.946;2024-03-08T03:20:12;3.40;99.90
31695;DHT22;18289;51.330;4.946;2024-03-08T03:22:51;3.40;99.90
31695;DHT22;18289;51.330;4.946;2024-03-08T03:25:22;3.40;99.90
31695;DHT22;18289;51.330;4.946;2024-03-08T03:27:59;3.40;99.90
31695;DHT22;18289;51.330;4.946;2024-03-08T03:30:25;3.30;99.90
31695;DHT22;18289;51.330;4.946;2024-03-08T03:32:52;3.30;99.90
31695;DHT22;18289;51.330;4.946;2024-03-08T03:35:22;3.20;99.90
31695;DHT22;18289;51.330;4.946;2024-03-08T03:37:48;3.20;99.90
31695;DHT22;18289;51.330;4.946;2024-03-08T03:40:28;3.20;99.90
31695;DHT22;18289;51.330;4.946;2024-03-08T03:42:54;3.20;99.90
31695;DHT22;18289;51.330;4.946;2024-03-08T03:47:48;3.20;99.90
31695;DHT22;18289;51.330;4.946;2024-03-08T03:50:13;3.20;99.90
31695;DHT22;18289;51.330;4.946;2024-03-08T03:52:39;3.30;99.90
31695;DHT22;18289;51.330;4.946;2024-03-08T03:55:05;3.20;99.90
31695;DHT22;18289;51.330;4.946;2024-03-08T03:57:31;3.20;99.90
31695;DHT22;18289;51.330;4.946;2024-03-08T03:59:57;3.20;99.90
31695;DHT22;18289;51.330;4.946;2024-03-08T04:02:28;3.20;99.90
31695;DHT22;18289;51.330;4.946;2024-03-08T04:04:53;3.20;99.90
31695;DHT22;18289;51.330;4.946;2024-03-08T04:07:20;3.20;99.90
31695;DHT22;18289;51.330;4.946;2024-03-08T04:09:46;3.10;99.90
31695;DHT22;18289;51.330;4.946;2024-03-08T04:12:12;3.10;99.90
31695;DHT22;18289;51.330;4.946;2024-03-08T04:17:05;3.10;99.90
31695;DHT22;18289;51.330;4.946;2024-03-08T04:19:31;3.10;99.90
31695;DHT22;18289;51.330;4.946;2024-03-08T04:21:57;3.00;99.90
31695;DHT22;18289;51.330;4.946;2024-03-08T04:24:22;3.00;99.90
31695;DHT22;18289;51.330;4.946;2024-03-08T04:26:48;3.00;99.90
31695;DHT22;18289;51.330;4.946;2024-03-08T04:29:14;3.00;99.90
31695;DHT22;18289;51.330;4.946;2024-03-08T04:31:40;3.00;99.90
31695;DHT22;18289;51.330;4.946;2024-03-08T04:34:06;3.00;99.90
31695;DHT22;18289;51.330;4.946;2024-03-08T04:36:32;3.00;99.90
31695;DHT22;18289;51.330;4.946;2024-03-08T04:38:59;3.00;99.90
31695;DHT22;18289;51.330;4.946;2024-03-08T04:41:26;2.90;99.90
31695;DHT22;18289;51.330;4.946;2024-03-08T04:43:51;2.90;99.90
31695;DHT22;18289;51.330;4.946;2024-03-08T04:46:17;2.80;99.90
31695;DHT22;18289;51.330;4.946;2024-03-08T04:48:43;2.80;99.90
31695;DHT22;18289;51.330;4.946;2024-03-08T04:51:09;2.90;99.90
31695;DHT22;18289;51.330;4.946;2024-03-08T04:53:35;3.00;99.90
31695;DHT22;18289;51.330;4.946;2024-03-08T04:56:01;3.00;99.90
31695;DHT22;18289;51.330;4.946;2024-03-08T04:58:32;2.90;99.90
31695;DHT22;18289;51.330;4.946;2024-03-08T05:01:00;2.80;99.90
31695;DHT22;18289;51.330;4.946;2024-03-08T05:03:26;2.80;99.90
31695;DHT22;18289;51.330;4.946;2024-03-08T05:05:52;2.70;99.90
31695;DHT22;18289;51.330;4.946;2024-03-08T05:08:18;2.70;99.90
31695;DHT22;18289;51.330;4.946;2024-03-08T05:10:45;2.70;99.90
31695;DHT22;18289;51.330;4.946;2024-03-08T05:13:12;2.70;99.90
31695;DHT22;18289;51.330;4.946;2024-03-08T05:15:38;2.70;99.90
31695;DHT22;18289;51.330;4.946;2024-03-08T05:18:05;2.80;99.90
31695;DHT22;18289;51.330;4.946;2024-03-08T05:20:31;2.70;99.90
31695;DHT22;18289;51.330;4.946;2024-03-08T05:22:57;2.70;99.90
31695;DHT22;18289;51.330;4.946;2024-03-08T05:25:26;2.70;99.90
31695;DHT22;18289;51.330;4.946;2024-03-08T05:27:52;2.70;99.90
31695;DHT22;18289;51.330;4.946;2024-03-08T05:30:18;2.80;99.90
31695;DHT22;18289;51.330;4.946;2024-03-08T05:32:43;2.80;99.90
31695;DHT22;18289;51.330;4.946;2024-03-08T05:35:12;2.70;99.90
31695;DHT22;18289;51.330;4.946;2024-03-08T05:37:38;2.60;99.90
31695;DHT22;18289;51.330;4.946;2024-03-08T05:40:05;2.60;99.90
31695;DHT22;18289;51.330;4.946;2024-03-08T05:42:35;2.70;99.90
31695;DHT22;18289;51.330;4.946;2024-03-08T05:45:02;2.70;99.90
31695;DHT22;18289;51.330;4.946;2024-03-08T05:47:28;2.70;99.90
31695;DHT22;18289;51.330;4.946;2024-03-08T05:49:54;2.70;99.90
31695;DHT22;18289;51.330;4.946;2024-03-08T05:52:20;2.70;99.90
31695;DHT22;18289;51.330;4.946;2024-03-08T05:54:45;2.70;99.90
31695;DHT22;18289;51.330;4.946;2024-03-08T05:57:12;2.70;99.90
31695;DHT22;18289;51.330;4.946;2024-03-08T05:59:39;2.70;99.90
31695;DHT22;18289;51.330;4.946;2024-03-08T06:02:05;2.60;99.90
31695;DHT22;18289;51.330;4.946;2024-03-08T06:04:31;2.70;99.90
31695;DHT22;18289;51.330;4.946;2024-03-08T06:06:57;2.80;99.90
31695;DHT22;18289;51.330;4.946;2024-03-08T06:09:24;2.70;99.90
31695;DHT22;18289;51.330;4.946;2024-03-08T06:11:51;2.80;99.90
31695;DHT22;18289;51.330;4.946;2024-03-08T06:14:16;2.80;99.90
31695;DHT22;18289;51.330;4.946;2024-03-08T06:16:47;2.70;99.90
31695;DHT22;18289;51.330;4.946;2024-03-08T06:19:15;2.70;99.90
31695;DHT22;18289;51.330;4.946;2024-03-08T06:21:41;2.70;99.90
31695;DHT22;18289;51.330;4.946;2024-03-08T06:24:07;2.70;99.90
31695;DHT22;18289;51.330;4.946;2024-03-08T06:26:32;2.70;99.90
31695;DHT22;18289;51.330;4.946;2024-03-08T06:28:58;2.80;99.90
31695;DHT22;18289;51.330;4.946;2024-03-08T06:31:24;2.80;99.90
31695;DHT22;18289;51.330;4.946;2024-03-08T06:33:50;2.80;99.90
31695;DHT22;18289;51.330;4.946;2024-03-08T06:36:16;2.80;99.90
31695;DHT22;18289;51.330;4.946;2024-03-08T06:38:48;2.90;99.90
31695;DHT22;18289;51.330;4.946;2024-03-08T06:41:14;2.80;99.90
31695;DHT22;18289;51.330;4.946;2024-03-08T06:43:47;2.80;99.90
31695;DHT22;18289;51.330;4.946;2024-03-08T06:46:18;2.90;99.90
31695;DHT22;18289;51.330;4.946;2024-03-08T06:48:45;3.00;99.90
31695;DHT22;18289;51.330;4.946;2024-03-08T06:51:11;3.00;99.90
31695;DHT22;18289;51.330;4.946;2024-03-08T06:53:37;2.90;99.90
31695;DHT22;18289;51.330;4.946;2024-03-08T06:56:04;3.00;99.90
31695;DHT22;18289;51.330;4.946;2024-03-08T06:58:29;3.10;99.90
31695;DHT22;18289;51.330;4.946;2024-03-08T07:00:55;3.10;99.90
31695;DHT22;18289;51.330;4.946;2024-03-08T07:03:24;3.00;99.90
31695;DHT22;18289;51.330;4.946;2024-03-08T07:05:49;3.10;99.90
31695;DHT22;18289;51.330;4.946;2024-03-08T07:08:15;3.10;99.90
31695;DHT22;18289;51.330;4.946;2024-03-08T07:10:42;3.10;99.90
31695;DHT22;18289;51.330;4.946;2024-03-08T07:13:08;3.20;99.90
31695;DHT22;18289;51.330;4.946;2024-03-08T07:15:34;3.20;99.90
31695;DHT22;18289;51.330;4.946;2024-03-08T07:18:01;3.30;99.90
31695;DHT22;18289;51.330;4.946;2024-03-08T07:20:27;3.40;99.90
31695;DHT22;18289;51.330;4.946;2024-03-08T07:22:54;3.40;99.90
31695;DHT22;18289;51.330;4.946;2024-03-08T07:25:20;3.40;99.90
31695;DHT22;18289;51.330;4.946;2024-03-08T07:27:50;3.50;99.90
31695;DHT22;18289;51.330;4.946;2024-03-08T07:30:17;3.60;99.90
31695;DHT22;18289;51.330;4.946;2024-03-08T07:33:06;3.70;99.90
31695;DHT22;18289;51.330;4.946;2024-03-08T07:35:37;3.80;99.90
31695;DHT22;18289;51.330;4.946;2024-03-08T07:38:09;3.90;99.90
31695;DHT22;18289;51.330;4.946;2024-03-08T07:40:36;4.10;99.90
31695;DHT22;18289;51.330;4.946;2024-03-08T07:43:03;4.20;99.90
31695;DHT22;18289;51.330;4.946;2024-03-08T07:45:29;4.20;99.90
31695;DHT22;18289;51.330;4.946;2024-03-08T07:47:56;4.50;99.90
31695;DHT22;18289;51.330;4.946;2024-03-08T07:50:22;4.60;99.90
31695;DHT22;18289;51.330;4.946;2024-03-08T07:52:48;4.80;99.90
31695;DHT22;18289;51.330;4.946;2024-03-08T07:55:14;4.90;99.90
31695;DHT22;18289;51.330;4.946;2024-03-08T07:57:40;4.90;99.90
31695;DHT22;18289;51.330;4.946;2024-03-08T08:00:08;5.10;99.90
31695;DHT22;18289;51.330;4.946;2024-03-08T08:02:35;5.10;99.90
31695;DHT22;18289;51.330;4.946;2024-03-08T08:05:01;5.30;99.90
31695;DHT22;18289;51.330;4.946;2024-03-08T08:07:27;5.40;99.90
31695;DHT22;18289;51.330;4.946;2024-03-08T08:09:53;5.40;99.90
31695;DHT22;18289;51.330;4.946;2024-03-08T08:12:19;5.50;99.90
31695;DHT22;18289;51.330;4.946;2024-03-08T08:14:44;5.60;99.90
31695;DHT22;18289;51.330;4.946;2024-03-08T08:17:10;5.60;99.90
31695;DHT22;18289;51.330;4.946;2024-03-08T08:19:37;5.70;99.90
31695;DHT22;18289;51.330;4.946;2024-03-08T08:22:04;5.70;99.90
31695;DHT22;18289;51.330;4.946;2024-03-08T08:24:29;5.80;99.90
31695;DHT22;18289;51.330;4.946;2024-03-08T08:26:55;5.80;99.90
31695;DHT22;18289;51.330;4.946;2024-03-08T08:29:21;5.90;99.90
31695;DHT22;18289;51.330;4.946;2024-03-08T08:31:48;6.00;99.90
31695;DHT22;18289;51.330;4.946;2024-03-08T08:34:16;6.20;99.90
31695;DHT22;18289;51.330;4.946;2024-03-08T08:36:44;6.20;99.90
31695;DHT22;18289;51.330;4.946;2024-03-08T08:39:10;6.60;99.90
31695;DHT22;18289;51.330;4.946;2024-03-08T08:41:39;6.80;99.90
31695;DHT22;18289;51.330;4.946;2024-03-08T08:44:07;7.20;99.90
31695;DHT22;18289;51.330;4.946;2024-03-08T08:46:36;7.30;99.90
31695;DHT22;18289;51.330;4.946;2024-03-08T08:49:03;7.30;99.90
31695;DHT22;18289;51.330;4.946;2024-03-08T08:51:29;7.50;99.90
31695;DHT22;18289;51.330;4.946;2024-03-08T08:53:55;7.70;99.90
31695;DHT22;18289;51.330;4.946;2024-03-08T08:56:21;7.70;99.90
31695;DHT22;18289;51.330;4.946;2024-03-08T08:58:47;8.00;99.90
31695;DHT22;18289;51.330;4.946;2024-03-08T09:01:14;8.10;99.90
31695;DHT22;18289;51.330;4.946;2024-03-08T09:03:40;8.40;99.90
31695;DHT22;18289;51.330;4.946;2024-03-08T09:06:08;8.40;99.90
31695;DHT22;18289;51.330;4.946;2024-03-08T09:08:37;8.50;99.90
31695;DHT22;18289;51.330;4.946;2024-03-08T09:11:03;8.50;99.90
31695;DHT22;18289;51.330;4.946;2024-03-08T09:13:29;8.90;99.90
31695;DHT22;18289;51.330;4.946;2024-03-08T09:15:56;9.10;99.90
31695;DHT22;18289;51.330;4.946;2024-03-08T09:18:21;9.20;99.90
31695;DHT22;18289;51.330;4.946;2024-03-08T09:20:47;9.50;99.90
31695;DHT22;18289;51.330;4.946;2024-03-08T09:23:13;9.40;99.90
31695;DHT22;18289;51.330;4.946;2024-03-08T09:25:40;9.60;99.90
31695;DHT22;18289;51.330;4.946;2024-03-08T09:28:06;9.60;99.90
31695;DHT22;18289;51.330;4.946;2024-03-08T09:30:32;9.60;99.90
31695;DHT22;18289;51.330;4.946;2024-03-08T09:32:57;9.70;99.90
31695;DHT22;18289;51.330;4.946;2024-03-08T09:35:23;9.50;99.90
31695;DHT22;18289;51.330;4.946;2024-03-08T09:37:49;9.50;99.90
31695;DHT22;18289;51.330;4.946;2024-03-08T09:40:17;9.80;99.90
31695;DHT22;18289;51.330;4.946;2024-03-08T09:45:13;10.50;99.90
31695;DHT22;18289;51.330;4.946;2024-03-08T09:47:44;10.30;99.90
31695;DHT22;18289;51.330;4.946;2024-03-08T09:50:11;10.40;99.90
31695;DHT22;18289;51.330;4.946;2024-03-08T09:52:41;10.80;99.90
31695;DHT22;18289;51.330;4.946;2024-03-08T09:55:09;10.80;99.90
31695;DHT22;18289;51.330;4.946;2024-03-08T09:57:37;10.90;99.90
31695;DHT22;18289;51.330;4.946;2024-03-08T10:00:04;10.90;99.90
31695;DHT22;18289;51.330;4.946;2024-03-08T10:03:01;11.40;99.90
31695;DHT22;18289;51.330;4.946;2024-03-08T10:05:26;11.40;99.90
31695;DHT22;18289;51.330;4.946;2024-03-08T10:07:52;11.30;99.90
31695;DHT22;18289;51.330;4.946;2024-03-08T10:10:18;11.30;99.90
31695;DHT22;18289;51.330;4.946;2024-03-08T10:12:44;11.20;99.90
31695;DHT22;18289;51.330;4.946;2024-03-08T10:15:11;10.90;99.90
31695;DHT22;18289;51.330;4.946;2024-03-08T10:17:38;11.20;99.90
31695;DHT22;18289;51.330;4.946;2024-03-08T10:20:16;11.20;99.90
31695;DHT22;18289;51.330;4.946;2024-03-08T10:22:42;11.40;99.90
31695;DHT22;18289;51.330;4.946;2024-03-08T10:25:11;11.80;99.90
31695;DHT22;18289;51.330;4.946;2024-03-08T10:27:41;11.70;99.90
31695;DHT22;18289;51.330;4.946;2024-03-08T10:30:15;11.50;99.90
31695;DHT22;18289;51.330;4.946;2024-03-08T10:32:45;11.90;99.90
31695;DHT22;18289;51.330;4.946;2024-03-08T10:35:11;12.30;99.90
31695;DHT22;18289;51.330;4.946;2024-03-08T10:37:48;12.20;99.90
31695;DHT22;18289;51.330;4.946;2024-03-08T10:40:18;12.60;99.90
31695;DHT22;18289;51.330;4.946;2024-03-08T10:42:52;12.60;99.90
31695;DHT22;18289;51.330;4.946;2024-03-08T10:45:40;12.70;99.90
31695;DHT22;18289;51.330;4.946;2024-03-08T10:48:28;12.50;99.90
31695;DHT22;18289;51.330;4.946;2024-03-08T10:51:00;12.80;99.90
31695;DHT22;18289;51.330;4.946;2024-03-08T10:53:28;12.80;99.90
31695;DHT22;18289;51.330;4.946;2024-03-08T10:55:56;12.90;99.90
31695;DHT22;18289;51.330;4.946;2024-03-08T10:58:24;13.20;99.90
31695;DHT22;18289;51.330;4.946;2024-03-08T11:00:53;13.40;99.90
31695;DHT22;18289;51.330;4.946;2024-03-08T11:06:04;14.90;99.90
31695;DHT22;18289;51.330;4.946;2024-03-08T11:08:31;15.10;99.90
31695;DHT22;18289;51.330;4.946;2024-03-08T11:10:56;15.60;99.90
31695;DHT22;18289;51.330;4.946;2024-03-08T11:13:41;15.90;99.90
31695;DHT22;18289;51.330;4.946;2024-03-08T11:16:36;16.30;99.90
31695;DHT22;18289;51.330;4.946;2024-03-08T11:19:04;16.10;99.60
31695;DHT22;18289;51.330;4.946;2024-03-08T11:21:31;15.50;99.10
31695;DHT22;18289;51.330;4.946;2024-03-08T11:24:16;16.40;99.90
31695;DHT22;18289;51.330;4.946;2024-03-08T11:26:45;16.40;99.00
31695;DHT22;18289;51.330;4.946;2024-03-08T11:32:03;16.10;98.60
31695;DHT22;18289;51.330;4.946;2024-03-08T11:34:29;16.60;99.40
31695;DHT22;18289;51.330;4.946;2024-03-08T11:36:56;17.40;99.20
31695;DHT22;18289;51.330;4.946;2024-03-08T11:39:22;17.60;97.80
31695;DHT22;18289;51.330;4.946;2024-03-08T11:41:49;17.60;95.80
31695;DHT22;18289;51.330;4.946;2024-03-08T11:44:15;17.60;95.10
31695;DHT22;18289;51.330;4.946;2024-03-08T11:46:42;17.30;95.40
31695;DHT22;18289;51.330;4.946;2024-03-08T11:49:12;17.40;95.00
31695;DHT22;18289;51.330;4.946;2024-03-08T11:51:38;18.30;95.60
31695;DHT22;18289;51.330;4.946;2024-03-08T11:54:04;18.40;95.70
31695;DHT22;18289;51.330;4.946;2024-03-08T11:56:31;18.90;93.60
31695;DHT22;18289;51.330;4.946;2024-03-08T11:58:58;19.60;95.00
31695;DHT22;18289;51.330;4.946;2024-03-08T12:01:24;19.90;94.10
31695;DHT22;18289;51.330;4.946;2024-03-08T12:03:56;19.90;93.20
31695;DHT22;18289;51.330;4.946;2024-03-08T12:06:25;19.10;90.50
31695;DHT22;18289;51.330;4.946;2024-03-08T12:08:51;19.30;90.70
31695;DHT22;18289;51.330;4.946;2024-03-08T12:11:20;18.90;92.40
31695;DHT22;18289;51.330;4.946;2024-03-08T12:13:49;18.50;91.20
31695;DHT22;18289;51.330;4.946;2024-03-08T12:16:17;18.30;92.30
31695;DHT22;18289;51.330;4.946;2024-03-08T12:18:51;18.80;91.70
31695;DHT22;18289;51.330;4.946;2024-03-08T12:21:17;19.10;90.80
31695;DHT22;18289;51.330;4.946;2024-03-08T12:23:46;19.40;90.00
31695;DHT22;18289;51.330;4.946;2024-03-08T12:26:18;19.60;90.10
31695;DHT22;18289;51.330;4.946;2024-03-08T12:28:48;19.30;89.80
31695;DHT22;18289;51.330;4.946;2024-03-08T12:31:18;19.10;89.50
31695;DHT22;18289;51.330;4.946;2024-03-08T12:33:49;18.70;89.10
31695;DHT22;18289;51.330;4.946;2024-03-08T12:36:16;18.60;91.50
31695;DHT22;18289;51.330;4.946;2024-03-08T12:38:47;18.90;87.00
31695;DHT22;18289;51.330;4.946;2024-03-08T12:41:19;18.60;90.20
31695;DHT22;18289;51.330;4.946;2024-03-08T12:43:45;18.80;88.30
31695;DHT22;18289;51.330;4.946;2024-03-08T12:46:18;18.20;89.70
31695;DHT22;18289;51.330;4.946;2024-03-08T12:48:48;18.20;91.20
31695;DHT22;18289;51.330;4.946;2024-03-08T12:51:14;18.80;90.80
31695;DHT22;18289;51.330;4.946;2024-03-08T12:53:43;19.20;87.80
31695;DHT22;18289;51.330;4.946;2024-03-08T12:56:10;19.40;89.00
31695;DHT22;18289;51.330;4.946;2024-03-08T12:58:36;19.40;86.50
31695;DHT22;18289;51.330;4.946;2024-03-08T13:01:05;19.80;90.00
31695;DHT22;18289;51.330;4.946;2024-03-08T13:03:35;19.70;88.20
31695;DHT22;18289;51.330;4.946;2024-03-08T13:06:02;19.50;86.80
31695;DHT22;18289;51.330;4.946;2024-03-08T13:08:29;19.80;84.80
31695;DHT22;18289;51.330;4.946;2024-03-08T13:10:56;20.50;88.10
31695;DHT22;18289;51.330;4.946;2024-03-08T13:13:22;20.20;85.00
31695;DHT22;18289;51.330;4.946;2024-03-08T13:15:48;19.80;83.30
31695;DHT22;18289;51.330;4.946;2024-03-08T13:18:14;19.50;85.80
31695;DHT22;18289;51.330;4.946;2024-03-08T13:20:41;19.60;83.70
31695;DHT22;18289;51.330;4.946;2024-03-08T13:23:09;19.80;84.10
31695;DHT22;18289;51.330;4.946;2024-03-08T13:25:35;19.90;83.60
31695;DHT22;18289;51.330;4.946;2024-03-08T13:28:04;19.60;84.60
31695;DHT22;18289;51.330;4.946;2024-03-08T13:30:31;19.20;83.80
31695;DHT22;18289;51.330;4.946;2024-03-08T13:32:56;19.20;83.30
31695;DHT22;18289;51.330;4.946;2024-03-08T13:35:22;19.40;84.00
31695;DHT22;18289;51.330;4.946;2024-03-08T13:37:51;19.10;83.30
31695;DHT22;18289;51.330;4.946;2024-03-08T13:40:16;19.70;80.70
31695;DHT22;18289;51.330;4.946;2024-03-08T13:42:46;19.90;82.90
31695;DHT22;18289;51.330;4.946;2024-03-08T13:45:12;19.70;82.00
31695;DHT22;18289;51.330;4.946;2024-03-08T13:47:39;19.30;81.80
31695;DHT22;18289;51.330;4.946;2024-03-08T13:50:08;19.00;81.40
31695;DHT22;18289;51.330;4.946;2024-03-08T13:52:37;18.40;81.10
31695;DHT22;18289;51.330;4.946;2024-03-08T13:55:04;19.30;85.50
31695;DHT22;18289;51.330;4.946;2024-03-08T13:57:31;19.40;82.30
31695;DHT22;18289;51.330;4.946;2024-03-08T13:59:58;19.40;81.00
31695;DHT22;18289;51.330;4.946;2024-03-08T14:02:23;19.20;80.70
31695;DHT22;18289;51.330;4.946;2024-03-08T14:04:53;19.50;82.00
31695;DHT22;18289;51.330;4.946;2024-03-08T14:07:20;19.20;81.50
31695;DHT22;18289;51.330;4.946;2024-03-08T14:09:46;18.90;82.40
31695;DHT22;18289;51.330;4.946;2024-03-08T14:12:12;19.50;82.50
31695;DHT22;18289;51.330;4.946;2024-03-08T14:14:40;20.10;80.60
31695;DHT22;18289;51.330;4.946;2024-03-08T14:17:07;19.80;80.50
31695;DHT22;18289;51.330;4.946;2024-03-08T14:19:35;19.90;80.00
31695;DHT22;18289;51.330;4.946;2024-03-08T14:24:28;19.00;81.40
31695;DHT22;18289;51.330;4.946;2024-03-08T14:26:54;18.90;80.40
31695;DHT22;18289;51.330;4.946;2024-03-08T14:29:20;18.30;79.90
31695;DHT22;18289;51.330;4.946;2024-03-08T14:31:45;18.30;81.80
31695;DHT22;18289;51.330;4.946;2024-03-08T14:34:11;18.60;81.10
31695;DHT22;18289;51.330;4.946;2024-03-08T14:36:39;18.60;81.60
31695;DHT22;18289;51.330;4.946;2024-03-08T14:39:05;18.10;83.30
31695;DHT22;18289;51.330;4.946;2024-03-08T14:41:33;18.40;85.30
31695;DHT22;18289;51.330;4.946;2024-03-08T14:43:58;18.50;82.20
31695;DHT22;18289;51.330;4.946;2024-03-08T14:46:25;18.60;83.60
31695;DHT22;18289;51.330;4.946;2024-03-08T14:48:52;18.20;80.90
31695;DHT22;18289;51.330;4.946;2024-03-08T14:51:19;17.80;80.50
31695;DHT22;18289;51.330;4.946;2024-03-08T14:53:48;17.70;81.10
31695;DHT22;18289;51.330;4.946;2024-03-08T14:56:15;17.80;83.00
31695;DHT22;18289;51.330;4.946;2024-03-08T14:58:45;18.40;82.60
31695;DHT22;18289;51.330;4.946;2024-03-08T15:01:23;18.10;80.90
31695;DHT22;18289;51.330;4.946;2024-03-08T15:03:53;17.90;83.30
31695;DHT22;18289;51.330;4.946;2024-03-08T15:06:20;17.90;81.90
31695;DHT22;18289;51.330;4.946;2024-03-08T15:08:46;17.80;83.50
31695;DHT22;18289;51.330;4.946;2024-03-08T15:11:12;18.50;82.00
31695;DHT22;18289;51.330;4.946;2024-03-08T15:13:47;18.50;82.50
31695;DHT22;18289;51.330;4.946;2024-03-08T15:16:16;18.80;79.30
31695;DHT22;18289;51.330;4.946;2024-03-08T15:21:11;19.00;79.70
31695;DHT22;18289;51.330;4.946;2024-03-08T15:23:37;18.90;82.50
31695;DHT22;18289;51.330;4.946;2024-03-08T15:26:08;18.70;80.70
31695;DHT22;18289;51.330;4.946;2024-03-08T15:28:34;18.20;80.90
31695;DHT22;18289;51.330;4.946;2024-03-08T15:31:04;18.30;81.40
31695;DHT22;18289;51.330;4.946;2024-03-08T15:33:36;18.10;81.40
31695;DHT22;18289;51.330;4.946;2024-03-08T15:36:14;17.40;82.50
31695;DHT22;18289;51.330;4.946;2024-03-08T15:38:42;17.60;82.60
31695;DHT22;18289;51.330;4.946;2024-03-08T15:43:40;16.90;82.80
31695;DHT22;18289;51.330;4.946;2024-03-08T15:46:06;17.10;82.50
31695;DHT22;18289;51.330;4.946;2024-03-08T15:48:33;17.10;83.30
31695;DHT22;18289;51.330;4.946;2024-03-08T15:51:01;17.60;82.50
31695;DHT22;18289;51.330;4.946;2024-03-08T15:53:34;17.50;82.20
31695;DHT22;18289;51.330;4.946;2024-03-08T15:56:01;17.20;83.50
31695;DHT22;18289;51.330;4.946;2024-03-08T15:58:28;16.90;82.90
31695;DHT22;18289;51.330;4.946;2024-03-08T16:00:57;17.40;82.50
31695;DHT22;18289;51.330;4.946;2024-03-08T16:03:25;17.50;83.40
31695;DHT22;18289;51.330;4.946;2024-03-08T16:05:53;17.30;81.90